createdAt,value
2022-07-29T00:00:23.218Z,92301.72
2022-07-29T00:02:55.788Z,92312.41
2022-07-29T00:05:28.346Z,92313.25
2022-07-29T00:08:00.798Z,92307.44
2022-07-29T00:10:33.334Z,92311.94
2022-07-29T00:13:05.818Z,92298.41
2022-07-29T00:15:38.943Z,92290.63
2022-07-29T00:18:11.338Z,92285.13
2022-07-29T00:20:43.826Z,92295.34
2022-07-29T00:23:16.215Z,92290.31
2022-07-29T00:25:48.625Z,92302.25
2022-07-29T00:28:21.029Z,92298.66
2022-07-29T00:30:54.158Z,92303.38
2022-07-29T00:33:26.537Z,92303.81
2022-07-29T00:35:58.655Z,92302.63
2022-07-29T00:38:31.165Z,92298.56
2022-07-29T00:41:03.501Z,92302.41
2022-07-29T00:43:35.943Z,92298.56
2022-07-29T00:46:09.064Z,92295.13
2022-07-29T00:48:41.537Z,92289.66
2022-07-29T00:51:14.588Z,92289.41
2022-07-29T00:53:51.225Z,92288.22
2022-07-29T00:56:23.851Z,92284.59
2022-07-29T00:58:57.478Z,92279.22
2022-07-29T01:01:30.655Z,92272.63
2022-07-29T01:04:03.201Z,92270.13
2022-07-29T01:06:36.358Z,92264.06
2022-07-29T01:09:09.871Z,92260.44
2022-07-29T01:11:44.149Z,92262.44
2022-07-29T01:14:17.552Z,92251.09
2022-07-29T01:16:55.476Z,92254.19
2022-07-29T01:19:53.651Z,92250.47
2022-07-29T01:22:54.541Z,92264.06
2022-07-29T01:25:53.170Z,92264.63
2022-07-29T01:29:07.604Z,92254.41
2022-07-29T01:31:59.315Z,92262.53
2022-07-29T01:34:41.862Z,92257.03
2022-07-29T01:37:20.157Z,92255.81
2022-07-29T01:39:55.963Z,92247.59
2022-07-29T01:42:32.824Z,92250.66
2022-07-29T01:45:11.947Z,92249.75
2022-07-29T01:47:47.729Z,92250.72
2022-07-29T01:50:23.963Z,92247.44
2022-07-29T01:53:00.807Z,92246.69
2022-07-29T01:55:36.147Z,92249.00
2022-07-29T01:58:09.782Z,92240.34
2022-07-29T02:00:45.853Z,92247.72
2022-07-29T02:03:19.783Z,92247.25
2022-07-29T02:05:53.644Z,92251.88
2022-07-29T02:08:27.669Z,92242.78
2022-07-29T02:11:01.351Z,92237.72
2022-07-29T02:13:36.403Z,92234.00
2022-07-29T02:16:11.277Z,92229.13
2022-07-29T02:18:46.324Z,92222.00
2022-07-29T02:21:24.856Z,92222.22
2022-07-29T02:24:00.248Z,92223.53
2022-07-29T02:26:34.300Z,92221.25
2022-07-29T02:29:09.392Z,92221.91
2022-07-29T02:31:47.521Z,92214.25
2022-07-29T02:34:21.847Z,92215.22
2022-07-29T02:36:56.453Z,92211.16
2022-07-29T02:39:30.561Z,92210.28
2022-07-29T02:42:08.058Z,92205.25
2022-07-29T02:44:40.614Z,92204.91
2022-07-29T02:47:17.902Z,92200.84
2022-07-29T02:49:58.167Z,92197.22
2022-07-29T02:52:38.794Z,92202.28
2022-07-29T02:55:17.187Z,92208.22
2022-07-29T02:57:55.707Z,92212.50
2022-07-29T03:00:30.699Z,92217.53
2022-07-29T03:03:08.119Z,92211.81
2022-07-29T03:05:41.109Z,92210.94
2022-07-29T03:08:15.743Z,92203.00
2022-07-29T03:10:49.124Z,92202.22
2022-07-29T03:13:22.096Z,92193.63
2022-07-29T03:15:55.589Z,92207.97
2022-07-29T03:18:29.394Z,92203.84
2022-07-29T03:21:02.211Z,92208.06
2022-07-29T03:23:35.340Z,92215.31
2022-07-29T03:26:09.339Z,92220.78
2022-07-29T03:28:41.779Z,92230.63
2022-07-29T03:31:14.548Z,92225.16
2022-07-29T03:33:47.775Z,92226.34
2022-07-29T03:36:20.207Z,92229.63
2022-07-29T03:38:53.588Z,92231.91
2022-07-29T03:41:26.665Z,92234.06
2022-07-29T03:44:00.731Z,92234.53
2022-07-29T03:46:36.201Z,92228.56
2022-07-29T03:49:10.816Z,92228.47
2022-07-29T03:51:43.935Z,92225.38
2022-07-29T03:54:16.761Z,92226.38
2022-07-29T03:56:53.247Z,92233.94
2022-07-29T03:59:26.755Z,92235.78
2022-07-29T04:02:00.623Z,92232.66
2022-07-29T04:04:34.649Z,92231.97
2022-07-29T04:07:07.003Z,92229.13
2022-07-29T04:09:39.452Z,92235.69
2022-07-29T04:12:11.899Z,92230.53
2022-07-29T04:14:44.390Z,92220.25
2022-07-29T04:17:17.239Z,92238.41
2022-07-29T04:19:50.328Z,92231.09
2022-07-29T04:22:22.692Z,92228.56
2022-07-29T04:24:57.105Z,92230.00
2022-07-29T04:27:32.646Z,92233.63
2022-07-29T04:30:06.244Z,92237.56
2022-07-29T04:32:38.602Z,92242.16
2022-07-29T04:35:11.680Z,92247.34
2022-07-29T04:37:44.204Z,92255.81
2022-07-29T04:40:16.867Z,92248.22
2022-07-29T04:42:49.542Z,92248.88
2022-07-29T04:45:22.883Z,92250.78
2022-07-29T04:47:55.500Z,92255.94
2022-07-29T04:50:28.884Z,92256.81
2022-07-29T04:53:01.305Z,92258.78
2022-07-29T04:55:34.071Z,92253.09
2022-07-29T04:58:07.698Z,92260.53
2022-07-29T05:00:40.597Z,92256.72
2022-07-29T05:03:13.036Z,92254.50
2022-07-29T05:05:46.206Z,92261.88
2022-07-29T05:08:18.642Z,92263.09
2022-07-29T05:10:51.113Z,92258.59
2022-07-29T05:13:23.797Z,92256.84
2022-07-29T05:15:58.577Z,92258.47
2022-07-29T05:18:30.990Z,92258.91
2022-07-29T05:21:04.120Z,92261.22
2022-07-29T05:23:36.583Z,92260.84
2022-07-29T05:26:08.924Z,92259.84
2022-07-29T05:28:41.318Z,92257.41
2022-07-29T05:31:14.862Z,92252.63
2022-07-29T05:33:47.303Z,92256.75
2022-07-29T05:36:20.329Z,92254.59
2022-07-29T05:38:52.751Z,92259.06
2022-07-29T05:41:25.223Z,92254.88
2022-07-29T05:43:58.045Z,92262.97
2022-07-29T05:46:30.827Z,92259.34
2022-07-29T05:49:04.581Z,92266.56
2022-07-29T05:51:37.701Z,92264.16
2022-07-29T05:54:10.965Z,92269.53
2022-07-29T05:56:43.356Z,92264.72
2022-07-29T05:59:18.348Z,92272.94
2022-07-29T06:01:51.218Z,92268.22
2022-07-29T06:04:23.793Z,92271.06
2022-07-29T06:06:56.938Z,92270.88
2022-07-29T06:09:29.503Z,92273.81
2022-07-29T06:12:02.835Z,92264.22
2022-07-29T06:14:35.420Z,92267.66
2022-07-29T06:17:07.878Z,92263.53
2022-07-29T06:19:40.512Z,92273.47
2022-07-29T06:22:16.014Z,92259.53
2022-07-29T06:24:48.448Z,92282.44
2022-07-29T06:27:20.780Z,92279.31
2022-07-29T06:29:53.165Z,92276.81
2022-07-29T06:32:27.516Z,92280.00
2022-07-29T06:35:24.530Z,92275.72
2022-07-29T06:37:53.898Z,92273.00
2022-07-29T06:40:48.901Z,92277.31
2022-07-29T06:43:21.360Z,92271.56
2022-07-29T06:45:55.278Z,92271.34
2022-07-29T06:48:29.010Z,92269.97
2022-07-29T06:51:02.033Z,92267.75
2022-07-29T06:53:36.074Z,92275.88
2022-07-29T06:56:09.068Z,92272.38
2022-07-29T06:58:41.450Z,92274.50
2022-07-29T07:01:13.967Z,92278.03
2022-07-29T07:03:46.340Z,92273.28
2022-07-29T07:06:18.742Z,92272.16
2022-07-29T07:08:51.776Z,92272.38
2022-07-29T07:11:24.395Z,92276.78
2022-07-29T07:14:02.248Z,92281.81
2022-07-29T07:16:35.879Z,92273.16
2022-07-29T07:19:08.309Z,92270.59
2022-07-29T07:21:40.736Z,92277.09
2022-07-29T07:24:14.014Z,92277.22
2022-07-29T07:26:46.778Z,92274.59
2022-07-29T07:29:19.236Z,92274.69
2022-07-29T07:31:51.741Z,92272.03
2022-07-29T07:34:28.380Z,92279.34
2022-07-29T07:37:02.201Z,92274.06
2022-07-29T07:39:35.326Z,92283.22
2022-07-29T07:42:14.725Z,92277.50
2022-07-29T07:45:11.953Z,92279.81
2022-07-29T07:47:41.091Z,92277.91
2022-07-29T07:50:18.234Z,92283.25
2022-07-29T07:52:52.588Z,92276.78
2022-07-29T07:55:26.379Z,92281.38
2022-07-29T07:57:58.931Z,92278.31
2022-07-29T08:00:32.543Z,92279.03
2022-07-29T08:03:05.280Z,92276.31
2022-07-29T08:05:50.984Z,92272.50
2022-07-29T08:08:23.368Z,92278.59
2022-07-29T08:10:56.737Z,92281.25
2022-07-29T08:13:30.413Z,92282.72
2022-07-29T08:16:11.606Z,92283.88
2022-07-29T08:18:45.578Z,92283.81
2022-07-29T08:21:18.481Z,92286.06
2022-07-29T08:23:59.691Z,92282.22
2022-07-29T08:26:35.111Z,92292.53
2022-07-29T08:29:07.611Z,92287.50
2022-07-29T08:31:40.623Z,92285.50
2022-07-29T08:34:13.100Z,92288.50
2022-07-29T08:36:45.483Z,92276.91
2022-07-29T08:39:23.306Z,92284.44
2022-07-29T08:41:57.175Z,92282.34
2022-07-29T08:44:31.308Z,92283.00
2022-07-29T08:47:04.966Z,92277.28
2022-07-29T08:49:38.496Z,92277.28
2022-07-29T08:52:11.844Z,92267.88
2022-07-29T08:54:44.781Z,92275.50
2022-07-29T08:57:19.070Z,92268.91
2022-07-29T08:59:54.920Z,92261.16
2022-07-29T09:02:34.358Z,92264.81
2022-07-29T09:05:08.159Z,92269.78
2022-07-29T09:07:43.420Z,92267.63
2022-07-29T09:10:15.835Z,92264.91
2022-07-29T09:12:49.471Z,92261.91
2022-07-29T09:15:21.868Z,92267.34
2022-07-29T09:17:55.659Z,92265.31
2022-07-29T09:20:48.926Z,92267.03
2022-07-29T09:23:24.218Z,92262.75
2022-07-29T09:26:06.266Z,92262.41
2022-07-29T09:28:43.183Z,92252.19
2022-07-29T09:31:15.665Z,92265.16
2022-07-29T09:33:48.146Z,92260.25
2022-07-29T09:36:20.588Z,92259.72
2022-07-29T09:38:58.974Z,92267.13
2022-07-29T09:41:45.569Z,92268.69
2022-07-29T09:44:19.070Z,92256.59
2022-07-29T09:46:59.365Z,92265.66
2022-07-29T09:49:32.293Z,92262.19
2022-07-29T09:52:26.161Z,92258.03
2022-07-29T09:55:06.474Z,92244.19
2022-07-29T09:57:39.008Z,92256.28
2022-07-29T10:00:14.925Z,92253.94
2022-07-29T10:02:47.942Z,92248.59
2022-07-29T10:05:22.275Z,92243.88
2022-07-29T10:07:57.150Z,92238.84
2022-07-29T10:10:31.612Z,92235.63
2022-07-29T10:13:09.963Z,92237.06
2022-07-29T10:15:46.665Z,92237.00
2022-07-29T10:18:20.259Z,92236.56
2022-07-29T10:20:53.783Z,92235.13
2022-07-29T10:23:26.583Z,92234.09
2022-07-29T10:25:59.353Z,92223.19
2022-07-29T10:28:32.383Z,92215.69
2022-07-29T10:31:11.937Z,92221.06
2022-07-29T10:33:53.871Z,92217.16
2022-07-29T10:36:43.229Z,92210.22
2022-07-29T10:39:41.758Z,92211.94
2022-07-29T10:42:33.483Z,92210.22
2022-07-29T10:45:08.004Z,92209.91
2022-07-29T10:47:42.182Z,92207.75
2022-07-29T10:50:17.405Z,92207.31
2022-07-29T10:52:54.738Z,92200.38
2022-07-29T10:55:36.753Z,92197.34
2022-07-29T10:58:14.169Z,92190.34
2022-07-29T11:00:47.627Z,92197.03
2022-07-29T11:03:50.761Z,92194.88
2022-07-29T11:06:26.578Z,92185.72
2022-07-29T11:09:20.125Z,92189.81
2022-07-29T11:11:53.478Z,92178.88
2022-07-29T11:14:56.610Z,92187.97
2022-07-29T11:17:37.564Z,92186.34
2022-07-29T11:20:40.785Z,92180.41
2022-07-29T11:23:27.443Z,92183.66
2022-07-29T11:26:20.879Z,92176.09
2022-07-29T11:29:03.338Z,92174.31
2022-07-29T11:31:39.174Z,92180.91
2022-07-29T11:34:20.911Z,92171.41
2022-07-29T11:37:27.994Z,92176.84
2022-07-29T11:40:19.340Z,92168.75
2022-07-29T11:42:52.820Z,92170.53
2022-07-29T11:45:41.557Z,92168.13
2022-07-29T11:48:28.591Z,92170.91
2022-07-29T11:51:10.429Z,92162.69
2022-07-29T11:53:47.911Z,92164.06
2022-07-29T11:56:31.335Z,92162.56
2022-07-29T11:59:09.299Z,92163.19
2022-07-29T12:02:06.633Z,92155.38
2022-07-29T12:04:52.457Z,92158.94
2022-07-29T12:07:34.720Z,92154.44
2022-07-29T12:10:11.622Z,92149.97
2022-07-29T12:12:53.343Z,92153.19
2022-07-29T12:15:46.062Z,92147.84
2022-07-29T12:18:24.383Z,92147.38
2022-07-29T12:21:04.010Z,92150.28
2022-07-29T12:23:36.375Z,92153.66
2022-07-29T12:26:10.629Z,92149.50
2022-07-29T12:28:54.692Z,92152.38
2022-07-29T12:31:43.961Z,92147.53
2022-07-29T12:34:17.878Z,92135.63
2022-07-29T12:36:50.695Z,92132.69
2022-07-29T12:39:23.235Z,92135.63
2022-07-29T12:42:03.984Z,92140.34
2022-07-29T12:44:47.853Z,92138.34
2022-07-29T12:47:21.295Z,92139.34
2022-07-29T12:50:09.463Z,92141.69
2022-07-29T12:52:41.941Z,92140.09
2022-07-29T12:55:14.859Z,92131.84
2022-07-29T12:57:49.046Z,92128.28
2022-07-29T13:00:23.913Z,92135.63
2022-07-29T13:02:58.264Z,92121.06
2022-07-29T13:05:41.538Z,92117.28
2022-07-29T13:08:20.082Z,92111.03
2022-07-29T13:10:54.567Z,92123.97
2022-07-29T13:13:27.766Z,92115.53
2022-07-29T13:16:07.718Z,92120.16
2022-07-29T13:18:41.549Z,92115.31
2022-07-29T13:21:16.314Z,92114.03
2022-07-29T13:23:48.977Z,92107.59
2022-07-29T13:26:21.362Z,92102.97
2022-07-29T13:28:54.934Z,92100.72
2022-07-29T13:31:27.511Z,92104.09
2022-07-29T13:33:59.905Z,92105.09
2022-07-29T13:36:32.350Z,92097.72
2022-07-29T13:39:05.026Z,92089.19
2022-07-29T13:41:37.496Z,92080.56
2022-07-29T13:44:10.563Z,92088.16
2022-07-29T13:46:42.969Z,92081.22
2022-07-29T13:49:15.431Z,92083.25
2022-07-29T13:51:47.874Z,92081.22
2022-07-29T13:54:20.510Z,92079.84
2022-07-29T13:56:52.965Z,92078.31
2022-07-29T13:59:25.975Z,92087.69
2022-07-29T14:01:58.576Z,92081.34
2022-07-29T14:04:31.268Z,92088.56
2022-07-29T14:07:04.131Z,92086.25
2022-07-29T14:09:41.006Z,92089.16
2022-07-29T14:12:21.297Z,92089.38
2022-07-29T14:14:54.405Z,92087.06
2022-07-29T14:17:26.922Z,92074.94
2022-07-29T14:19:59.310Z,92079.34
2022-07-29T14:22:31.743Z,92082.66
2022-07-29T14:25:14.653Z,92073.97
2022-07-29T14:27:47.842Z,92075.88
2022-07-29T14:30:21.443Z,92083.34
2022-07-29T14:32:53.799Z,92082.59
2022-07-29T14:35:26.385Z,92080.66
2022-07-29T14:37:58.857Z,92092.06
2022-07-29T14:40:31.424Z,92085.81
2022-07-29T14:43:03.819Z,92079.81
2022-07-29T14:45:36.990Z,92069.28
2022-07-29T14:48:09.439Z,92069.91
2022-07-29T14:50:41.859Z,92064.16
2022-07-29T14:53:14.471Z,92072.34
2022-07-29T14:55:46.871Z,92077.94
2022-07-29T14:58:20.051Z,92072.59
2022-07-29T15:00:54.950Z,92081.66
2022-07-29T15:03:28.039Z,92068.81
2022-07-29T15:06:00.481Z,92070.97
2022-07-29T15:08:32.844Z,92072.66
2022-07-29T15:11:05.271Z,92068.03
2022-07-29T15:13:37.615Z,92067.28
2022-07-29T15:16:10.708Z,92076.53
2022-07-29T15:18:43.427Z,92070.91
2022-07-29T15:21:15.867Z,92084.03
2022-07-29T15:23:48.234Z,92072.66
2022-07-29T15:26:20.583Z,92075.16
2022-07-29T15:28:53.099Z,92076.19
2022-07-29T15:31:26.233Z,92074.00
2022-07-29T15:34:01.290Z,92075.31
2022-07-29T15:36:53.586Z,92075.75
2022-07-29T15:39:26.083Z,92074.97
2022-07-29T15:42:00.463Z,92072.47
2022-07-29T15:44:33.291Z,92077.91
2022-07-29T15:47:06.840Z,92069.16
2022-07-29T15:49:48.786Z,92069.97
2022-07-29T15:52:25.130Z,92072.41
2022-07-29T15:54:59.591Z,92074.78
2022-07-29T15:57:32.020Z,92077.06
2022-07-29T16:00:05.539Z,92075.72
2022-07-29T16:02:41.182Z,92077.38
2022-07-29T16:05:13.599Z,92081.66
2022-07-29T16:07:46.003Z,92068.31
2022-07-29T16:10:18.457Z,92074.84
2022-07-29T16:12:50.872Z,92074.09
2022-07-29T16:15:23.463Z,92073.75
2022-07-29T16:17:56.568Z,92073.38
2022-07-29T16:20:28.970Z,92076.78
2022-07-29T16:23:01.380Z,92080.56
2022-07-29T16:25:58.618Z,92080.16
2022-07-29T16:28:26.130Z,92067.84
2022-07-29T16:30:58.588Z,92071.25
2022-07-29T16:33:54.623Z,92080.91
2022-07-29T16:36:24.228Z,92076.31
2022-07-29T16:38:56.599Z,92082.06
2022-07-29T16:41:29.035Z,92076.00
2022-07-29T16:44:01.437Z,92078.69
2022-07-29T16:46:36.511Z,92077.59
2022-07-29T16:49:11.110Z,92074.56
2022-07-29T16:51:43.563Z,92070.94
2022-07-29T16:54:15.995Z,92074.69
2022-07-29T16:56:48.504Z,92078.94
2022-07-29T16:59:20.919Z,92068.69
2022-07-29T17:01:53.462Z,92059.28
2022-07-29T17:04:26.802Z,92061.34
2022-07-29T17:06:59.918Z,92064.78
2022-07-29T17:09:33.367Z,92064.97
2022-07-29T17:12:06.311Z,92061.22
2022-07-29T17:14:38.768Z,92068.88
2022-07-29T17:17:13.712Z,92071.28
2022-07-29T17:19:48.674Z,92073.75
2022-07-29T17:22:21.060Z,92078.50
2022-07-29T17:24:53.629Z,92080.22
2022-07-29T17:27:26.039Z,92078.78
2022-07-29T17:29:58.452Z,92080.44
2022-07-29T17:32:35.667Z,92081.22
2022-07-29T17:35:24.292Z,92079.72
2022-07-29T17:37:56.877Z,92077.09
2022-07-29T17:40:29.275Z,92069.91
2022-07-29T17:43:01.644Z,92074.94
2022-07-29T17:45:49.960Z,92083.03
2022-07-29T17:48:23.322Z,92080.88
2022-07-29T17:50:57.735Z,92078.28
2022-07-29T17:53:30.215Z,92078.13
2022-07-29T17:56:03.253Z,92079.03
2022-07-29T17:58:35.774Z,92079.44
2022-07-29T18:01:08.599Z,92076.88
2022-07-29T18:03:41.375Z,92090.81
2022-07-29T18:06:14.468Z,92088.59
2022-07-29T18:08:47.226Z,92092.16
2022-07-29T18:11:19.559Z,92091.91
2022-07-29T18:13:52.155Z,92096.16
2022-07-29T18:16:24.571Z,92089.72
2022-07-29T18:18:56.998Z,92100.84
2022-07-29T18:21:43.736Z,92094.75
2022-07-29T18:24:24.509Z,92103.19
2022-07-29T18:26:57.190Z,92097.88
2022-07-29T18:29:29.775Z,92104.03
2022-07-29T18:32:02.393Z,92115.13
2022-07-29T18:34:34.805Z,92101.81
2022-07-29T18:37:07.882Z,92099.53
2022-07-29T18:39:40.317Z,92107.56
2022-07-29T18:42:12.694Z,92107.94
2022-07-29T18:44:49.109Z,92104.88
2022-07-29T18:47:21.727Z,92109.06
2022-07-29T18:49:54.139Z,92112.94
2022-07-29T18:52:28.375Z,92117.13
2022-07-29T18:55:01.830Z,92123.59
2022-07-29T18:57:54.228Z,92117.16
2022-07-29T19:00:27.333Z,92120.56
2022-07-29T19:02:59.833Z,92116.00
2022-07-29T19:05:32.489Z,92119.81
2022-07-29T19:08:06.295Z,92120.56
2022-07-29T19:10:38.640Z,92122.81
2022-07-29T19:13:13.409Z,92123.97
2022-07-29T19:15:46.105Z,92131.19
2022-07-29T19:18:18.630Z,92134.28
2022-07-29T19:20:51.102Z,92121.69
2022-07-29T19:23:24.803Z,92136.16
2022-07-29T19:25:58.790Z,92132.34
2022-07-29T19:28:31.142Z,92143.00
2022-07-29T19:31:03.976Z,92144.13
2022-07-29T19:33:36.418Z,92140.31
2022-07-29T19:36:08.784Z,92146.44
2022-07-29T19:38:41.850Z,92140.31
2022-07-29T19:41:16.339Z,92145.22
2022-07-29T19:43:50.722Z,92153.94
2022-07-29T19:46:28.036Z,92149.78
2022-07-29T19:49:00.585Z,92152.44
2022-07-29T19:51:33.168Z,92150.13
2022-07-29T19:54:06.405Z,92142.88
2022-07-29T19:56:39.483Z,92156.94
2022-07-29T19:59:14.533Z,92148.50
2022-07-29T20:01:46.919Z,92148.13
2022-07-29T20:04:19.283Z,92155.72
2022-07-29T20:06:55.083Z,92156.09
2022-07-29T20:09:28.401Z,92154.94
2022-07-29T20:12:00.868Z,92151.47
2022-07-29T20:14:33.348Z,92144.63
2022-07-29T20:17:06.036Z,92141.91
2022-07-29T20:19:38.468Z,92144.19
2022-07-29T20:22:11.203Z,92152.09
2022-07-29T20:24:44.591Z,92150.91
2022-07-29T20:27:17.628Z,92150.09
2022-07-29T20:29:50.051Z,92151.84
2022-07-29T20:32:22.432Z,92150.78
2022-07-29T20:34:54.771Z,92150.41
2022-07-29T20:37:27.174Z,92152.59
2022-07-29T20:40:01.475Z,92152.59
2022-07-29T20:42:33.963Z,92155.56
2022-07-29T20:45:08.789Z,92157.88
2022-07-29T20:47:41.476Z,92156.72
2022-07-29T20:50:14.276Z,92163.78
2022-07-29T20:52:46.742Z,92169.91
2022-07-29T20:55:20.250Z,92161.50
2022-07-29T20:57:52.766Z,92160.09
2022-07-29T21:00:25.146Z,92161.66
2022-07-29T21:02:57.655Z,92161.34
2022-07-29T21:05:30.081Z,92160.88
2022-07-29T21:08:02.639Z,92152.69
2022-07-29T21:10:35.738Z,92161.47
2022-07-29T21:13:08.770Z,92150.13
2022-07-29T21:15:43.371Z,92142.16
2022-07-29T21:18:26.560Z,92146.66
2022-07-29T21:20:59.885Z,92152.59
2022-07-29T21:23:32.407Z,92147.66
2022-07-29T21:26:09.819Z,92145.72
2022-07-29T21:28:44.679Z,92157.34
2022-07-29T21:31:17.417Z,92152.78
2022-07-29T21:33:49.811Z,92153.13
2022-07-29T21:36:47.294Z,92149.63
2022-07-29T21:39:14.592Z,92155.28
2022-07-29T21:41:47.748Z,92167.84
2022-07-29T21:44:21.123Z,92163.84
2022-07-29T21:46:53.515Z,92152.63
2022-07-29T21:49:25.949Z,92157.19
2022-07-29T21:51:58.321Z,92157.44
2022-07-29T21:54:32.036Z,92164.66
2022-07-29T21:57:05.311Z,92155.13
2022-07-29T21:59:37.815Z,92152.69
2022-07-29T22:02:10.189Z,92152.34
2022-07-29T22:04:42.590Z,92152.88
2022-07-29T22:07:15.083Z,92155.81
2022-07-29T22:09:47.450Z,92155.72
2022-07-29T22:12:20.506Z,92158.78
2022-07-29T22:14:53.319Z,92150.91
2022-07-29T22:17:25.791Z,92158.06
2022-07-29T22:19:58.339Z,92157.34
2022-07-29T22:22:30.747Z,92163.03
2022-07-29T22:25:04.188Z,92170.59
2022-07-29T22:27:37.595Z,92171.41
2022-07-29T22:30:11.326Z,92172.00
2022-07-29T22:32:43.812Z,92173.59
2022-07-29T22:35:16.770Z,92179.75
2022-07-29T22:37:50.412Z,92171.13
2022-07-29T22:40:22.791Z,92172.66
2022-07-29T22:43:04.342Z,92175.69
2022-07-29T22:45:36.865Z,92179.81
2022-07-29T22:48:09.851Z,92172.13
2022-07-29T22:50:42.320Z,92164.00
2022-07-29T22:53:14.754Z,92171.84
2022-07-29T22:55:47.120Z,92169.84
2022-07-29T22:58:20.114Z,92168.88
2022-07-29T23:00:52.599Z,92164.41
2022-07-29T23:03:25.324Z,92164.00
2022-07-29T23:05:57.768Z,92161.75
2022-07-29T23:08:30.216Z,92157.50
2022-07-29T23:11:02.564Z,92166.78
2022-07-29T23:13:36.119Z,92158.84
2022-07-29T23:16:08.574Z,92170.69
2022-07-29T23:18:40.983Z,92171.31
2022-07-29T23:21:13.678Z,92149.50
2022-07-29T23:23:46.287Z,92167.47
2022-07-29T23:26:18.707Z,92167.25
2022-07-29T23:28:51.790Z,92175.66
2022-07-29T23:31:24.335Z,92168.75
2022-07-29T23:33:56.719Z,92164.41
2022-07-29T23:36:29.306Z,92160.88
2022-07-29T23:39:01.742Z,92164.88
2022-07-29T23:41:34.292Z,92158.50
2022-07-29T23:44:07.440Z,92159.13
2022-07-29T23:46:39.943Z,92165.25
2022-07-29T23:49:13.310Z,92160.38
2022-07-29T23:51:45.681Z,92160.38
2022-07-29T23:54:18.106Z,92157.66
2022-07-29T23:56:50.524Z,92161.13
2022-07-29T23:59:23.971Z,92163.59
